Snoqualmie River: Carnation station

back to: Snoqualmie river
Carnation station Summary - (NOAA Hydrograph: CRNW1)
flood stage: 54.0 ft
Latest reading:
Thu07/18 08:15 am 46.06 ft 1801 cfs (+364/hr)
Past 24hr max:
Thu07/18 08:15 am 46.06 ft 1801 cfs
Forecasted crests: (published Wed 07/17/19 03:41 pm)
Thu07/18 11:00 am 46.02 ft 1729 cfs
Wed07/24 05:00 pm 45.55 ft 997 cfs

Carnation station Details

Latest Readings

Last 100 Readings:
Thu07/18 08:15 am 46.06 ft 1801 cfs
Thu07/18 08:00 am 46.01 ft 1710 cfs
Thu07/18 07:45 am 45.97 ft 1638 cfs
Thu07/18 07:30 am 45.93 ft 1568 cfs
Thu07/18 07:15 am 45.9 ft 1517 cfs
Thu07/18 07:00 am 45.87 ft 1466 cfs
Thu07/18 06:45 am 45.84 ft 1417 cfs
Thu07/18 06:30 am 45.81 ft 1375 cfs
Thu07/18 06:15 am 45.79 ft 1348 cfs
Thu07/18 06:00 am 45.78 ft 1334 cfs
Thu07/18 05:45 am 45.76 ft 1307 cfs
Thu07/18 05:30 am 45.75 ft 1293 cfs
Thu07/18 05:15 am 45.74 ft 1277 cfs
Thu07/18 05:00 am 45.72 ft 1246 cfs
Thu07/18 04:45 am 45.71 ft 1231 cfs
Thu07/18 04:30 am 45.7 ft 1215 cfs
Thu07/18 04:15 am 45.68 ft 1186 cfs
Thu07/18 04:00 am 45.67 ft 1171 cfs
Thu07/18 03:45 am 45.66 ft 1157 cfs
Thu07/18 03:30 am 45.64 ft 1128 cfs
Thu07/18 03:15 am 45.63 ft 1114 cfs
Thu07/18 03:00 am 45.63 ft 1114 cfs
Thu07/18 02:45 am 45.62 ft 1100 cfs
Thu07/18 02:30 am 45.62 ft 1100 cfs
Thu07/18 02:15 am 45.61 ft 1086 cfs
Thu07/18 02:00 am 45.61 ft 1086 cfs
Thu07/18 01:45 am 45.6 ft 1072 cfs
Thu07/18 01:30 am 45.6 ft 1072 cfs
Thu07/18 01:15 am 45.6 ft 1072 cfs
Thu07/18 01:00 am 45.59 ft 1058 cfs
Thu07/18 12:45 am 45.58 ft 1044 cfs
Thu07/18 12:30 am 45.58 ft 1044 cfs
Thu07/18 12:15 am 45.52 ft 964 cfs
Thu07/18 12:00 am 45.55 ft 1004 cfs
Wed07/17 11:45 pm 45.56 ft 1017 cfs
Wed07/17 11:30 pm 45.54 ft 990 cfs
Wed07/17 11:15 pm 45.53 ft 977 cfs
Wed07/17 11:00 pm 45.57 ft 1031 cfs
Wed07/17 10:45 pm 45.57 ft 1031 cfs
Wed07/17 10:30 pm 45.57 ft 1031 cfs
Wed07/17 10:15 pm 45.57 ft 1031 cfs
Wed07/17 10:00 pm 45.57 ft 1031 cfs
Wed07/17 09:45 pm 45.57 ft 1031 cfs
Wed07/17 09:30 pm 45.57 ft 1031 cfs
Wed07/17 09:15 pm 45.57 ft 1031 cfs
Wed07/17 09:00 pm 45.57 ft 1031 cfs
Wed07/17 08:45 pm 45.57 ft 1031 cfs
Wed07/17 08:30 pm 45.57 ft 1031 cfs
Wed07/17 08:15 pm 45.57 ft 1031 cfs
Wed07/17 08:00 pm 45.57 ft 1031 cfs
Wed07/17 07:45 pm 45.57 ft 1031 cfs
Wed07/17 07:30 pm 45.57 ft 1031 cfs
Wed07/17 07:15 pm 45.57 ft 1031 cfs
Wed07/17 07:00 pm 45.57 ft 1031 cfs
Wed07/17 06:45 pm 45.57 ft 1031 cfs
Wed07/17 06:30 pm 45.57 ft 1031 cfs
Wed07/17 06:15 pm 45.57 ft 1031 cfs
Wed07/17 06:00 pm 45.57 ft 1031 cfs
Wed07/17 05:45 pm 45.57 ft 1031 cfs
Wed07/17 05:30 pm 45.56 ft 1017 cfs
Wed07/17 05:15 pm 45.57 ft 1031 cfs
Wed07/17 05:00 pm 45.57 ft 1031 cfs
Wed07/17 04:45 pm 45.57 ft 1031 cfs
Wed07/17 04:30 pm 45.58 ft 1044 cfs
Wed07/17 04:15 pm 45.58 ft 1044 cfs
Wed07/17 04:00 pm 45.57 ft 1031 cfs
Wed07/17 03:45 pm 45.58 ft 1044 cfs
Wed07/17 03:30 pm 45.57 ft 1031 cfs
Wed07/17 03:15 pm 45.57 ft 1031 cfs
Wed07/17 03:00 pm 45.58 ft 1044 cfs
Wed07/17 02:45 pm 45.58 ft 1044 cfs
Wed07/17 02:30 pm 45.58 ft 1044 cfs
Wed07/17 02:15 pm 45.58 ft 1044 cfs
Wed07/17 02:00 pm 45.58 ft 1044 cfs
Wed07/17 01:45 pm 45.57 ft 1031 cfs
Wed07/17 01:30 pm 45.57 ft 1031 cfs
Wed07/17 01:15 pm 45.57 ft 1031 cfs
Wed07/17 01:00 pm 45.57 ft 1031 cfs
Wed07/17 12:45 pm 45.57 ft 1031 cfs
Wed07/17 12:30 pm 45.57 ft 1031 cfs
Wed07/17 12:15 pm 45.57 ft 1031 cfs
Wed07/17 12:00 pm 45.56 ft 1017 cfs
Wed07/17 11:45 am 45.56 ft 1017 cfs
Wed07/17 11:30 am 45.56 ft 1017 cfs
Wed07/17 11:15 am 45.56 ft 1017 cfs
Wed07/17 11:00 am 45.56 ft 1017 cfs
Wed07/17 10:45 am 45.56 ft 1017 cfs
Wed07/17 10:30 am 45.56 ft 1017 cfs
Wed07/17 10:15 am 45.55 ft 1004 cfs
Wed07/17 10:00 am 45.55 ft 1004 cfs
Wed07/17 09:45 am 45.55 ft 1004 cfs
Wed07/17 09:30 am 45.55 ft 1004 cfs
Wed07/17 09:15 am 45.55 ft 1004 cfs
Wed07/17 09:00 am 45.54 ft 990 cfs
Wed07/17 08:45 am 45.54 ft 990 cfs
Wed07/17 08:30 am 45.54 ft 990 cfs
Wed07/17 08:15 am 45.54 ft 990 cfs
Wed07/17 08:00 am 45.54 ft 990 cfs
Wed07/17 07:45 am 45.54 ft 990 cfs
Wed07/17 07:30 am 45.53 ft 977 cfs

Latest Forecasts

Currently Forecasted Readings:
Wed07/17 05:00 pm 45.58 ft 1044 cfs
Wed07/17 11:00 pm 45.7 ft 1218 cfs
Thu07/18 05:00 am 45.91 ft 1529 cfs
Thu07/18 11:00 am 46.02 ft 1729 cfs
Thu07/18 05:00 pm 45.99 ft 1666 cfs
Thu07/18 11:00 pm 45.91 ft 1541 cfs
Fri07/19 05:00 am 45.84 ft 1418 cfs
Fri07/19 11:00 am 45.77 ft 1326 cfs
Fri07/19 05:00 pm 45.73 ft 1262 cfs
Fri07/19 11:00 pm 45.7 ft 1214 cfs
Sat07/20 05:00 am 45.68 ft 1180 cfs
Sat07/20 11:00 am 45.66 ft 1154 cfs
Sat07/20 05:00 pm 45.64 ft 1134 cfs
Sat07/20 11:00 pm 45.63 ft 1117 cfs
Sun07/21 05:00 am 45.62 ft 1101 cfs
Sun07/21 11:00 am 45.61 ft 1089 cfs
Sun07/21 05:00 pm 45.6 ft 1076 cfs
Sun07/21 11:00 pm 45.59 ft 1065 cfs
Mon07/22 05:00 am 45.59 ft 1055 cfs
Mon07/22 11:00 am 45.58 ft 1046 cfs
Mon07/22 05:00 pm 45.57 ft 1036 cfs
Mon07/22 11:00 pm 45.57 ft 1028 cfs
Tue07/23 05:00 am 45.56 ft 1023 cfs
Tue07/23 11:00 am 45.56 ft 1016 cfs
Tue07/23 05:00 pm 45.55 ft 1006 cfs
Tue07/23 11:00 pm 45.55 ft 1000 cfs
Wed07/24 05:00 am 45.54 ft 993 cfs
Wed07/24 11:00 am 45.54 ft 993 cfs
Wed07/24 05:00 pm 45.55 ft 997 cfs
Wed07/24 11:00 pm 45.54 ft 990 cfs
Thu07/25 05:00 am 45.53 ft 976 cfs
Thu07/25 11:00 am 45.52 ft 968 cfs
Thu07/25 05:00 pm 45.52 ft 960 cfs
Thu07/25 11:00 pm 45.51 ft 954 cfs
Fri07/26 05:00 am 45.51 ft 949 cfs
Fri07/26 11:00 am 45.51 ft 944 cfs
Fri07/26 05:00 pm 45.5 ft 939 cfs
Fri07/26 11:00 pm 45.5 ft 934 cfs
Sat07/27 05:00 am 45.5 ft 933 cfs

Snoqualmie River flood gauge data supplied by the
National Weather Service Northwest River Forecast Center.

Sign up for Floodzilla alerts.